sensor_id;sensor_type;location;lat;lon;timestamp;P1;durP1;ratioP1;P2;durP2;ratioP2
74074;SDS011;62428;51.412;5.432;2023-11-22T00:01:04;15.17;;;7.83;;
74074;SDS011;62428;51.412;5.432;2023-11-22T00:03:30;21.55;;;8.57;;
74074;SDS011;62428;51.412;5.432;2023-11-22T00:05:56;18.35;;;8.07;;
74074;SDS011;62428;51.412;5.432;2023-11-22T00:08:21;19.52;;;7.75;;
74074;SDS011;62428;51.412;5.432;2023-11-22T00:10:46;22.93;;;8.53;;
74074;SDS011;62428;51.412;5.432;2023-11-22T00:13:12;19.13;;;8.63;;
74074;SDS011;62428;51.412;5.432;2023-11-22T00:15:37;19.87;;;8.23;;
74074;SDS011;62428;51.412;5.432;2023-11-22T00:18:03;20.63;;;8.50;;
74074;SDS011;62428;51.412;5.432;2023-11-22T00:20:31;23.35;;;8.95;;
74074;SDS011;62428;51.412;5.432;2023-11-22T00:22:58;17.35;;;7.97;;
74074;SDS011;62428;51.412;5.432;2023-11-22T00:25:24;16.43;;;8.37;;
74074;SDS011;62428;51.412;5.432;2023-11-22T00:27:49;15.87;;;8.00;;
74074;SDS011;62428;51.412;5.432;2023-11-22T00:30:15;17.27;;;7.60;;
74074;SDS011;62428;51.412;5.432;2023-11-22T00:32:40;19.15;;;9.32;;
74074;SDS011;62428;51.412;5.432;2023-11-22T00:35:06;16.57;;;8.57;;
74074;SDS011;62428;51.412;5.432;2023-11-22T00:37:33;18.77;;;8.30;;
74074;SDS011;62428;51.412;5.432;2023-11-22T00:39:59;20.20;;;8.38;;
74074;SDS011;62428;51.412;5.432;2023-11-22T00:42:35;18.63;;;8.60;;
74074;SDS011;62428;51.412;5.432;2023-11-22T00:45:02;19.17;;;8.48;;
74074;SDS011;62428;51.412;5.432;2023-11-22T00:47:31;16.20;;;7.60;;
74074;SDS011;62428;51.412;5.432;2023-11-22T00:49:59;17.48;;;8.27;;
74074;SDS011;62428;51.412;5.432;2023-11-22T00:52:24;18.67;;;9.00;;
74074;SDS011;62428;51.412;5.432;2023-11-22T00:54:50;21.37;;;9.03;;
74074;SDS011;62428;51.412;5.432;2023-11-22T00:57:15;19.63;;;9.57;;
74074;SDS011;62428;51.412;5.432;2023-11-22T00:59:41;19.05;;;8.35;;
74074;SDS011;62428;51.412;5.432;2023-11-22T01:02:07;18.23;;;8.37;;
74074;SDS011;62428;51.412;5.432;2023-11-22T01:04:33;17.70;;;8.80;;
74074;SDS011;62428;51.412;5.432;2023-11-22T01:07:01;17.60;;;8.15;;
74074;SDS011;62428;51.412;5.432;2023-11-22T01:09:26;20.57;;;8.73;;
74074;SDS011;62428;51.412;5.432;2023-11-22T01:11:53;16.63;;;8.20;;
74074;SDS011;62428;51.412;5.432;2023-11-22T01:14:19;16.30;;;7.27;;
74074;SDS011;62428;51.412;5.432;2023-11-22T01:16:44;15.10;;;7.63;;
74074;SDS011;62428;51.412;5.432;2023-11-22T01:19:09;15.30;;;7.57;;
74074;SDS011;62428;51.412;5.432;2023-11-22T01:21:36;14.93;;;7.20;;
74074;SDS011;62428;51.412;5.432;2023-11-22T01:24:01;16.13;;;8.05;;
74074;SDS011;62428;51.412;5.432;2023-11-22T01:26:27;16.25;;;6.95;;
74074;SDS011;62428;51.412;5.432;2023-11-22T01:28:52;14.73;;;7.43;;
74074;SDS011;62428;51.412;5.432;2023-11-22T01:31:17;15.77;;;7.87;;
74074;SDS011;62428;51.412;5.432;2023-11-22T01:33:46;15.95;;;7.50;;
74074;SDS011;62428;51.412;5.432;2023-11-22T01:36:12;19.23;;;8.07;;
74074;SDS011;62428;51.412;5.432;2023-11-22T01:38:37;17.10;;;7.27;;
74074;SDS011;62428;51.412;5.432;2023-11-22T01:41:04;15.87;;;6.90;;
74074;SDS011;62428;51.412;5.432;2023-11-22T01:43:30;13.93;;;7.38;;
74074;SDS011;62428;51.412;5.432;2023-11-22T01:45:56;14.73;;;7.23;;
74074;SDS011;62428;51.412;5.432;2023-11-22T01:48:22;19.73;;;7.68;;
74074;SDS011;62428;51.412;5.432;2023-11-22T01:50:48;18.25;;;7.47;;
74074;SDS011;62428;51.412;5.432;2023-11-22T01:53:13;17.53;;;6.90;;
74074;SDS011;62428;51.412;5.432;2023-11-22T01:55:41;15.57;;;7.53;;
74074;SDS011;62428;51.412;5.432;2023-11-22T01:58:08;19.40;;;7.57;;
74074;SDS011;62428;51.412;5.432;2023-11-22T02:00:42;18.30;;;7.90;;
74074;SDS011;62428;51.412;5.432;2023-11-22T02:03:11;19.55;;;7.55;;
74074;SDS011;62428;51.412;5.432;2023-11-22T02:05:39;18.00;;;6.88;;
74074;SDS011;62428;51.412;5.432;2023-11-22T02:08:07;15.93;;;7.75;;
74074;SDS011;62428;51.412;5.432;2023-11-22T02:10:33;15.68;;;7.18;;
74074;SDS011;62428;51.412;5.432;2023-11-22T02:12:58;14.70;;;7.27;;
74074;SDS011;62428;51.412;5.432;2023-11-22T02:15:24;15.57;;;7.30;;
74074;SDS011;62428;51.412;5.432;2023-11-22T02:17:49;21.10;;;8.00;;
74074;SDS011;62428;51.412;5.432;2023-11-22T02:20:14;18.20;;;8.52;;
74074;SDS011;62428;51.412;5.432;2023-11-22T02:22:44;18.13;;;8.37;;
74074;SDS011;62428;51.412;5.432;2023-11-22T02:25:10;18.55;;;9.00;;
74074;SDS011;62428;51.412;5.432;2023-11-22T02:27:36;20.90;;;8.00;;
74074;SDS011;62428;51.412;5.432;2023-11-22T02:30:02;15.45;;;7.68;;
74074;SDS011;62428;51.412;5.432;2023-11-22T02:32:30;17.23;;;8.57;;
74074;SDS011;62428;51.412;5.432;2023-11-22T02:34:56;19.83;;;7.60;;
74074;SDS011;62428;51.412;5.432;2023-11-22T02:37:21;19.40;;;8.83;;
74074;SDS011;62428;51.412;5.432;2023-11-22T02:39:58;20.52;;;8.07;;
74074;SDS011;62428;51.412;5.432;2023-11-22T02:42:25;16.13;;;7.90;;
74074;SDS011;62428;51.412;5.432;2023-11-22T02:44:51;18.77;;;8.20;;
74074;SDS011;62428;51.412;5.432;2023-11-22T02:47:16;15.38;;;7.50;;
74074;SDS011;62428;51.412;5.432;2023-11-22T02:49:41;15.83;;;8.07;;
74074;SDS011;62428;51.412;5.432;2023-11-22T02:52:07;15.30;;;7.70;;
74074;SDS011;62428;51.412;5.432;2023-11-22T02:54:32;19.33;;;7.83;;
74074;SDS011;62428;51.412;5.432;2023-11-22T02:56:59;19.00;;;7.95;;
74074;SDS011;62428;51.412;5.432;2023-11-22T02:59:25;16.40;;;8.18;;
74074;SDS011;62428;51.412;5.432;2023-11-22T03:01:50;17.60;;;8.10;;
74074;SDS011;62428;51.412;5.432;2023-11-22T03:04:16;18.17;;;8.17;;
74074;SDS011;62428;51.412;5.432;2023-11-22T03:06:41;18.60;;;7.90;;
74074;SDS011;62428;51.412;5.432;2023-11-22T03:09:06;21.37;;;8.50;;
74074;SDS011;62428;51.412;5.432;2023-11-22T03:11:33;23.13;;;9.43;;
74074;SDS011;62428;51.412;5.432;2023-11-22T03:13:58;18.33;;;9.00;;
74074;SDS011;62428;51.412;5.432;2023-11-22T03:16:24;21.03;;;8.70;;
74074;SDS011;62428;51.412;5.432;2023-11-22T03:18:49;20.47;;;8.33;;
74074;SDS011;62428;51.412;5.432;2023-11-22T03:21:16;17.92;;;7.57;;
74074;SDS011;62428;51.412;5.432;2023-11-22T03:23:42;16.67;;;7.88;;
74074;SDS011;62428;51.412;5.432;2023-11-22T03:26:07;16.27;;;7.70;;
74074;SDS011;62428;51.412;5.432;2023-11-22T03:28:34;15.18;;;7.38;;
74074;SDS011;62428;51.412;5.432;2023-11-22T03:30:59;19.77;;;7.80;;
74074;SDS011;62428;51.412;5.432;2023-11-22T03:33:25;14.97;;;7.47;;
74074;SDS011;62428;51.412;5.432;2023-11-22T03:35:51;20.40;;;7.93;;
74074;SDS011;62428;51.412;5.432;2023-11-22T03:38:16;22.03;;;7.63;;
74074;SDS011;62428;51.412;5.432;2023-11-22T03:40:42;15.98;;;7.30;;
74074;SDS011;62428;51.412;5.432;2023-11-22T03:43:08;18.70;;;8.07;;
74074;SDS011;62428;51.412;5.432;2023-11-22T03:45:35;16.25;;;7.13;;
74074;SDS011;62428;51.412;5.432;2023-11-22T03:48:00;18.53;;;7.87;;
74074;SDS011;62428;51.412;5.432;2023-11-22T03:50:26;17.33;;;7.63;;
74074;SDS011;62428;51.412;5.432;2023-11-22T03:52:51;15.23;;;7.20;;
74074;SDS011;62428;51.412;5.432;2023-11-22T03:55:16;17.47;;;7.50;;
74074;SDS011;62428;51.412;5.432;2023-11-22T03:57:41;15.88;;;7.50;;
74074;SDS011;62428;51.412;5.432;2023-11-22T04:00:07;15.17;;;7.33;;
74074;SDS011;62428;51.412;5.432;2023-11-22T04:02:34;19.10;;;8.43;;
74074;SDS011;62428;51.412;5.432;2023-11-22T04:05:00;16.15;;;7.47;;
74074;SDS011;62428;51.412;5.432;2023-11-22T04:07:25;16.83;;;7.37;;
74074;SDS011;62428;51.412;5.432;2023-11-22T04:09:50;16.37;;;7.70;;
74074;SDS011;62428;51.412;5.432;2023-11-22T04:12:16;17.57;;;7.50;;
74074;SDS011;62428;51.412;5.432;2023-11-22T04:14:41;14.33;;;6.87;;
74074;SDS011;62428;51.412;5.432;2023-11-22T04:17:06;17.20;;;7.17;;
74074;SDS011;62428;51.412;5.432;2023-11-22T04:19:31;16.63;;;6.93;;
74074;SDS011;62428;51.412;5.432;2023-11-22T04:21:57;14.80;;;6.70;;
74074;SDS011;62428;51.412;5.432;2023-11-22T04:24:24;16.45;;;7.43;;
74074;SDS011;62428;51.412;5.432;2023-11-22T04:26:49;16.30;;;6.67;;
74074;SDS011;62428;51.412;5.432;2023-11-22T04:29:15;18.83;;;7.03;;
74074;SDS011;62428;51.412;5.432;2023-11-22T04:31:41;17.13;;;7.40;;
74074;SDS011;62428;51.412;5.432;2023-11-22T04:34:06;16.30;;;6.50;;
74074;SDS011;62428;51.412;5.432;2023-11-22T04:36:32;22.13;;;7.33;;
74074;SDS011;62428;51.412;5.432;2023-11-22T04:38:57;18.35;;;7.13;;
74074;SDS011;62428;51.412;5.432;2023-11-22T04:41:22;15.13;;;6.97;;
74074;SDS011;62428;51.412;5.432;2023-11-22T04:43:48;15.27;;;7.30;;
74074;SDS011;62428;51.412;5.432;2023-11-22T04:46:14;16.13;;;7.13;;
74074;SDS011;62428;51.412;5.432;2023-11-22T04:48:39;15.23;;;7.57;;
74074;SDS011;62428;51.412;5.432;2023-11-22T04:51:06;15.33;;;6.17;;
74074;SDS011;62428;51.412;5.432;2023-11-22T04:53:31;16.85;;;7.30;;
74074;SDS011;62428;51.412;5.432;2023-11-22T04:55:57;17.70;;;7.63;;
74074;SDS011;62428;51.412;5.432;2023-11-22T04:58:24;14.38;;;6.82;;
74074;SDS011;62428;51.412;5.432;2023-11-22T05:00:49;17.63;;;7.07;;
74074;SDS011;62428;51.412;5.432;2023-11-22T05:03:14;14.60;;;7.07;;
74074;SDS011;62428;51.412;5.432;2023-11-22T05:05:40;15.90;;;7.03;;
74074;SDS011;62428;51.412;5.432;2023-11-22T05:08:05;15.07;;;7.10;;
74074;SDS011;62428;51.412;5.432;2023-11-22T05:10:30;19.80;;;7.63;;
74074;SDS011;62428;51.412;5.432;2023-11-22T05:12:56;16.37;;;7.27;;
74074;SDS011;62428;51.412;5.432;2023-11-22T05:15:24;17.77;;;8.00;;
74074;SDS011;62428;51.412;5.432;2023-11-22T05:17:50;15.32;;;7.38;;
74074;SDS011;62428;51.412;5.432;2023-11-22T05:20:15;19.10;;;7.87;;
74074;SDS011;62428;51.412;5.432;2023-11-22T05:22:41;16.63;;;7.17;;
74074;SDS011;62428;51.412;5.432;2023-11-22T05:25:06;17.90;;;7.80;;
74074;SDS011;62428;51.412;5.432;2023-11-22T05:27:32;19.02;;;8.57;;
74074;SDS011;62428;51.412;5.432;2023-11-22T05:29:57;20.50;;;8.83;;
74074;SDS011;62428;51.412;5.432;2023-11-22T05:32:23;21.80;;;9.27;;
74074;SDS011;62428;51.412;5.432;2023-11-22T05:34:49;23.65;;;10.02;;
74074;SDS011;62428;51.412;5.432;2023-11-22T05:37:14;24.33;;;9.80;;
74074;SDS011;62428;51.412;5.432;2023-11-22T05:39:39;25.97;;;10.53;;
74074;SDS011;62428;51.412;5.432;2023-11-22T05:42:05;28.83;;;10.23;;
74074;SDS011;62428;51.412;5.432;2023-11-22T05:44:31;23.83;;;9.45;;
74074;SDS011;62428;51.412;5.432;2023-11-22T05:46:57;34.40;;;10.00;;
74074;SDS011;62428;51.412;5.432;2023-11-22T05:49:22;46.33;;;11.17;;
74074;SDS011;62428;51.412;5.432;2023-11-22T05:51:47;27.47;;;10.50;;
74074;SDS011;62428;51.412;5.432;2023-11-22T05:54:13;41.80;;;11.00;;
74074;SDS011;62428;51.412;5.432;2023-11-22T05:56:41;32.10;;;10.23;;
74074;SDS011;62428;51.412;5.432;2023-11-22T05:59:06;29.10;;;10.33;;
74074;SDS011;62428;51.412;5.432;2023-11-22T06:01:32;26.53;;;10.20;;
74074;SDS011;62428;51.412;5.432;2023-11-22T06:03:57;25.23;;;10.27;;
74074;SDS011;62428;51.412;5.432;2023-11-22T06:06:22;26.23;;;10.80;;
74074;SDS011;62428;51.412;5.432;2023-11-22T06:08:48;28.05;;;10.32;;
74074;SDS011;62428;51.412;5.432;2023-11-22T06:11:14;36.63;;;10.40;;
74074;SDS011;62428;51.412;5.432;2023-11-22T06:13:40;22.13;;;9.77;;
74074;SDS011;62428;51.412;5.432;2023-11-22T06:16:07;23.45;;;9.88;;
74074;SDS011;62428;51.412;5.432;2023-11-22T06:18:34;32.95;;;10.23;;
74074;SDS011;62428;51.412;5.432;2023-11-22T06:21:05;25.40;;;8.83;;
74074;SDS011;62428;51.412;5.432;2023-11-22T06:23:34;21.48;;;8.73;;
74074;SDS011;62428;51.412;5.432;2023-11-22T06:25:59;21.92;;;9.77;;
74074;SDS011;62428;51.412;5.432;2023-11-22T06:28:25;22.33;;;8.98;;
74074;SDS011;62428;51.412;5.432;2023-11-22T06:30:50;19.10;;;8.27;;
74074;SDS011;62428;51.412;5.432;2023-11-22T06:33:15;30.33;;;8.80;;
74074;SDS011;62428;51.412;5.432;2023-11-22T06:35:41;24.77;;;8.20;;
74074;SDS011;62428;51.412;5.432;2023-11-22T06:38:07;20.25;;;8.63;;
74074;SDS011;62428;51.412;5.432;2023-11-22T06:40:33;29.63;;;9.85;;
74074;SDS011;62428;51.412;5.432;2023-11-22T06:42:58;22.90;;;8.47;;
74074;SDS011;62428;51.412;5.432;2023-11-22T06:45:24;33.37;;;9.63;;
74074;SDS011;62428;51.412;5.432;2023-11-22T06:47:49;20.03;;;8.60;;
74074;SDS011;62428;51.412;5.432;2023-11-22T06:50:15;22.60;;;9.00;;
74074;SDS011;62428;51.412;5.432;2023-11-22T06:52:41;27.07;;;8.60;;
74074;SDS011;62428;51.412;5.432;2023-11-22T06:55:07;20.15;;;8.70;;
74074;SDS011;62428;51.412;5.432;2023-11-22T06:57:33;20.63;;;9.27;;
74074;SDS011;62428;51.412;5.432;2023-11-22T07:00:00;23.40;;;9.90;;
74074;SDS011;62428;51.412;5.432;2023-11-22T07:02:26;21.05;;;8.88;;
74074;SDS011;62428;51.412;5.432;2023-11-22T07:04:52;21.63;;;8.87;;
74074;SDS011;62428;51.412;5.432;2023-11-22T07:07:18;26.55;;;9.95;;
74074;SDS011;62428;51.412;5.432;2023-11-22T07:09:44;29.05;;;9.30;;
74074;SDS011;62428;51.412;5.432;2023-11-22T07:12:11;25.10;;;9.52;;
74074;SDS011;62428;51.412;5.432;2023-11-22T07:14:36;26.87;;;9.83;;
74074;SDS011;62428;51.412;5.432;2023-11-22T07:17:02;31.03;;;9.80;;
74074;SDS011;62428;51.412;5.432;2023-11-22T07:19:28;29.45;;;10.00;;
74074;SDS011;62428;51.412;5.432;2023-11-22T07:21:54;24.93;;;10.43;;
74074;SDS011;62428;51.412;5.432;2023-11-22T07:24:19;47.55;;;10.10;;
74074;SDS011;62428;51.412;5.432;2023-11-22T07:26:45;33.07;;;10.60;;
74074;SDS011;62428;51.412;5.432;2023-11-22T07:29:10;52.30;;;11.33;;
74074;SDS011;62428;51.412;5.432;2023-11-22T07:31:37;30.58;;;11.05;;
74074;SDS011;62428;51.412;5.432;2023-11-22T07:34:03;40.72;;;11.25;;
74074;SDS011;62428;51.412;5.432;2023-11-22T07:36:28;38.67;;;10.80;;
74074;SDS011;62428;51.412;5.432;2023-11-22T07:38:54;29.83;;;12.10;;
74074;SDS011;62428;51.412;5.432;2023-11-22T07:41:19;30.73;;;10.88;;
74074;SDS011;62428;51.412;5.432;2023-11-22T07:43:46;35.33;;;12.15;;
74074;SDS011;62428;51.412;5.432;2023-11-22T07:46:11;42.80;;;12.23;;
74074;SDS011;62428;51.412;5.432;2023-11-22T07:48:40;38.47;;;12.30;;
74074;SDS011;62428;51.412;5.432;2023-11-22T07:51:06;34.83;;;12.73;;
74074;SDS011;62428;51.412;5.432;2023-11-22T07:53:32;35.25;;;12.10;;
74074;SDS011;62428;51.412;5.432;2023-11-22T07:56:01;36.25;;;12.15;;
74074;SDS011;62428;51.412;5.432;2023-11-22T07:58:30;44.55;;;14.52;;
74074;SDS011;62428;51.412;5.432;2023-11-22T08:00:56;33.80;;;12.48;;
74074;SDS011;62428;51.412;5.432;2023-11-22T08:03:22;38.90;;;12.63;;
74074;SDS011;62428;51.412;5.432;2023-11-22T08:05:50;39.30;;;12.18;;
74074;SDS011;62428;51.412;5.432;2023-11-22T08:08:21;44.15;;;13.52;;
74074;SDS011;62428;51.412;5.432;2023-11-22T08:10:48;42.83;;;12.70;;
74074;SDS011;62428;51.412;5.432;2023-11-22T08:13:14;46.55;;;14.65;;
74074;SDS011;62428;51.412;5.432;2023-11-22T08:15:40;47.38;;;14.82;;
74074;SDS011;62428;51.412;5.432;2023-11-22T08:18:06;50.83;;;15.37;;
74074;SDS011;62428;51.412;5.432;2023-11-22T08:20:31;49.37;;;14.80;;
74074;SDS011;62428;51.412;5.432;2023-11-22T08:22:56;46.23;;;14.00;;
74074;SDS011;62428;51.412;5.432;2023-11-22T08:25:22;57.92;;;16.48;;
74074;SDS011;62428;51.412;5.432;2023-11-22T08:27:47;57.80;;;15.70;;
74074;SDS011;62428;51.412;5.432;2023-11-22T08:30:13;62.00;;;17.33;;
74074;SDS011;62428;51.412;5.432;2023-11-22T08:32:40;61.15;;;16.60;;
74074;SDS011;62428;51.412;5.432;2023-11-22T08:35:12;65.53;;;16.77;;
74074;SDS011;62428;51.412;5.432;2023-11-22T08:37:39;59.57;;;16.47;;
74074;SDS011;62428;51.412;5.432;2023-11-22T08:40:08;55.53;;;15.65;;
74074;SDS011;62428;51.412;5.432;2023-11-22T08:42:45;66.90;;;17.97;;
74074;SDS011;62428;51.412;5.432;2023-11-22T08:45:11;78.30;;;18.20;;
74074;SDS011;62428;51.412;5.432;2023-11-22T08:47:37;70.15;;;19.88;;
74074;SDS011;62428;51.412;5.432;2023-11-22T08:50:04;68.13;;;18.70;;
74074;SDS011;62428;51.412;5.432;2023-11-22T08:52:31;72.35;;;17.58;;
74074;SDS011;62428;51.412;5.432;2023-11-22T08:54:56;67.67;;;18.77;;
74074;SDS011;62428;51.412;5.432;2023-11-22T08:57:21;61.05;;;18.00;;
74074;SDS011;62428;51.412;5.432;2023-11-22T08:59:47;67.73;;;19.33;;
74074;SDS011;62428;51.412;5.432;2023-11-22T09:02:12;72.93;;;19.67;;
74074;SDS011;62428;51.412;5.432;2023-11-22T09:04:39;68.32;;;18.95;;
74074;SDS011;62428;51.412;5.432;2023-11-22T09:07:06;81.55;;;20.83;;
74074;SDS011;62428;51.412;5.432;2023-11-22T09:09:32;73.40;;;19.30;;
74074;SDS011;62428;51.412;5.432;2023-11-22T09:11:59;64.82;;;18.65;;
74074;SDS011;62428;51.412;5.432;2023-11-22T09:14:25;74.63;;;19.57;;
74074;SDS011;62428;51.412;5.432;2023-11-22T09:16:50;71.30;;;19.47;;
74074;SDS011;62428;51.412;5.432;2023-11-22T09:19:20;67.32;;;19.30;;
74074;SDS011;62428;51.412;5.432;2023-11-22T09:21:47;65.78;;;18.98;;
74074;SDS011;62428;51.412;5.432;2023-11-22T09:24:13;70.20;;;19.13;;
74074;SDS011;62428;51.412;5.432;2023-11-22T09:26:38;70.97;;;18.67;;
74074;SDS011;62428;51.412;5.432;2023-11-22T09:29:03;77.40;;;22.07;;
74074;SDS011;62428;51.412;5.432;2023-11-22T09:31:30;67.15;;;19.13;;
74074;SDS011;62428;51.412;5.432;2023-11-22T09:33:55;67.77;;;19.70;;
74074;SDS011;62428;51.412;5.432;2023-11-22T09:36:21;71.25;;;20.92;;
74074;SDS011;62428;51.412;5.432;2023-11-22T09:38:48;68.88;;;19.15;;
74074;SDS011;62428;51.412;5.432;2023-11-22T09:41:13;69.37;;;21.33;;
74074;SDS011;62428;51.412;5.432;2023-11-22T09:43:41;66.68;;;20.38;;
74074;SDS011;62428;51.412;5.432;2023-11-22T09:46:07;72.70;;;21.38;;
74074;SDS011;62428;51.412;5.432;2023-11-22T09:48:36;69.80;;;20.53;;
74074;SDS011;62428;51.412;5.432;2023-11-22T09:53:34;79.28;;;20.63;;
74074;SDS011;62428;51.412;5.432;2023-11-22T09:56:05;76.32;;;21.02;;
74074;SDS011;62428;51.412;5.432;2023-11-22T09:58:35;71.10;;;20.95;;
74074;SDS011;62428;51.412;5.432;2023-11-22T10:01:03;67.80;;;20.30;;
74074;SDS011;62428;51.412;5.432;2023-11-22T10:03:29;69.35;;;19.65;;
74074;SDS011;62428;51.412;5.432;2023-11-22T10:05:58;63.42;;;19.80;;
74074;SDS011;62428;51.412;5.432;2023-11-22T10:08:24;70.32;;;20.63;;
74074;SDS011;62428;51.412;5.432;2023-11-22T10:10:52;73.87;;;20.27;;
74074;SDS011;62428;51.412;5.432;2023-11-22T10:13:19;71.65;;;21.67;;
74074;SDS011;62428;51.412;5.432;2023-11-22T10:15:45;67.05;;;21.35;;
74074;SDS011;62428;51.412;5.432;2023-11-22T10:18:12;65.18;;;19.65;;
74074;SDS011;62428;51.412;5.432;2023-11-22T10:20:39;61.07;;;20.07;;
74074;SDS011;62428;51.412;5.432;2023-11-22T10:23:12;63.92;;;19.88;;
74074;SDS011;62428;51.412;5.432;2023-11-22T10:25:44;62.78;;;19.05;;
74074;SDS011;62428;51.412;5.432;2023-11-22T10:28:12;65.85;;;18.33;;
74074;SDS011;62428;51.412;5.432;2023-11-22T10:30:38;58.87;;;18.03;;
74074;SDS011;62428;51.412;5.432;2023-11-22T10:33:05;62.65;;;19.13;;
74074;SDS011;62428;51.412;5.432;2023-11-22T10:35:31;58.90;;;19.67;;
74074;SDS011;62428;51.412;5.432;2023-11-22T10:37:58;58.73;;;18.20;;
74074;SDS011;62428;51.412;5.432;2023-11-22T10:40:27;62.72;;;20.27;;
74074;SDS011;62428;51.412;5.432;2023-11-22T10:42:54;64.38;;;20.10;;
74074;SDS011;62428;51.412;5.432;2023-11-22T10:45:21;61.17;;;19.30;;
74074;SDS011;62428;51.412;5.432;2023-11-22T10:47:46;51.40;;;17.70;;
74074;SDS011;62428;51.412;5.432;2023-11-22T10:50:14;51.25;;;17.00;;
74074;SDS011;62428;51.412;5.432;2023-11-22T10:52:41;54.00;;;16.57;;
74074;SDS011;62428;51.412;5.432;2023-11-22T10:55:11;53.65;;;16.67;;
74074;SDS011;62428;51.412;5.432;2023-11-22T10:57:44;52.42;;;17.70;;
74074;SDS011;62428;51.412;5.432;2023-11-22T11:00:13;50.50;;;17.63;;
74074;SDS011;62428;51.412;5.432;2023-11-22T11:02:41;49.30;;;16.67;;
74074;SDS011;62428;51.412;5.432;2023-11-22T11:05:31;47.43;;;16.97;;
74074;SDS011;62428;51.412;5.432;2023-11-22T11:08:07;51.45;;;16.30;;
74074;SDS011;62428;51.412;5.432;2023-11-22T11:10:40;45.83;;;15.70;;
74074;SDS011;62428;51.412;5.432;2023-11-22T11:13:11;45.22;;;15.63;;
74074;SDS011;62428;51.412;5.432;2023-11-22T11:15:37;48.33;;;15.75;;
74074;SDS011;62428;51.412;5.432;2023-11-22T11:18:04;47.60;;;15.50;;
74074;SDS011;62428;51.412;5.432;2023-11-22T11:21:07;49.15;;;15.73;;
74074;SDS011;62428;51.412;5.432;2023-11-22T11:23:26;43.25;;;15.07;;
74074;SDS011;62428;51.412;5.432;2023-11-22T11:25:52;42.65;;;14.30;;
74074;SDS011;62428;51.412;5.432;2023-11-22T11:28:25;44.90;;;15.02;;
74074;SDS011;62428;51.412;5.432;2023-11-22T11:30:51;43.20;;;15.17;;
74074;SDS011;62428;51.412;5.432;2023-11-22T11:33:19;47.35;;;16.70;;
74074;SDS011;62428;51.412;5.432;2023-11-22T11:35:52;47.47;;;15.80;;
74074;SDS011;62428;51.412;5.432;2023-11-22T11:38:21;47.05;;;15.25;;
74074;SDS011;62428;51.412;5.432;2023-11-22T11:40:55;47.90;;;15.50;;
74074;SDS011;62428;51.412;5.432;2023-11-22T11:43:21;47.60;;;16.33;;
74074;SDS011;62428;51.412;5.432;2023-11-22T11:46:03;47.23;;;15.97;;
74074;SDS011;62428;51.412;5.432;2023-11-22T11:48:33;46.83;;;16.60;;
74074;SDS011;62428;51.412;5.432;2023-11-22T11:50:58;50.57;;;16.00;;
74074;SDS011;62428;51.412;5.432;2023-11-22T11:53:23;51.10;;;16.10;;
74074;SDS011;62428;51.412;5.432;2023-11-22T11:55:49;51.35;;;16.98;;
74074;SDS011;62428;51.412;5.432;2023-11-22T11:58:16;51.85;;;17.45;;
74074;SDS011;62428;51.412;5.432;2023-11-22T12:00:42;51.07;;;17.70;;
74074;SDS011;62428;51.412;5.432;2023-11-22T12:03:07;54.57;;;17.57;;
74074;SDS011;62428;51.412;5.432;2023-11-22T12:05:36;57.15;;;18.73;;
74074;SDS011;62428;51.412;5.432;2023-11-22T12:08:02;53.50;;;17.40;;
74074;SDS011;62428;51.412;5.432;2023-11-22T12:10:27;51.17;;;17.38;;
74074;SDS011;62428;51.412;5.432;2023-11-22T12:12:53;53.90;;;16.87;;
74074;SDS011;62428;51.412;5.432;2023-11-22T12:15:18;46.40;;;16.63;;
74074;SDS011;62428;51.412;5.432;2023-11-22T12:17:44;49.53;;;16.00;;
74074;SDS011;62428;51.412;5.432;2023-11-22T12:20:10;50.20;;;17.35;;
74074;SDS011;62428;51.412;5.432;2023-11-22T12:22:38;42.03;;;14.68;;
74074;SDS011;62428;51.412;5.432;2023-11-22T12:25:06;41.03;;;14.43;;
74074;SDS011;62428;51.412;5.432;2023-11-22T12:27:32;41.78;;;14.63;;
74074;SDS011;62428;51.412;5.432;2023-11-22T12:29:57;41.60;;;15.03;;
74074;SDS011;62428;51.412;5.432;2023-11-22T12:32:26;43.33;;;15.00;;
74074;SDS011;62428;51.412;5.432;2023-11-22T12:34:51;42.47;;;14.88;;
74074;SDS011;62428;51.412;5.432;2023-11-22T12:37:21;40.00;;;14.30;;
74074;SDS011;62428;51.412;5.432;2023-11-22T12:39:48;35.05;;;13.52;;
74074;SDS011;62428;51.412;5.432;2023-11-22T12:42:13;38.63;;;13.90;;
74074;SDS011;62428;51.412;5.432;2023-11-22T12:44:48;38.47;;;13.60;;
74074;SDS011;62428;51.412;5.432;2023-11-22T12:47:14;38.30;;;13.88;;
74074;SDS011;62428;51.412;5.432;2023-11-22T12:49:47;32.75;;;12.35;;
74074;SDS011;62428;51.412;5.432;2023-11-22T12:52:12;36.20;;;13.57;;
74074;SDS011;62428;51.412;5.432;2023-11-22T12:54:37;40.53;;;13.10;;
74074;SDS011;62428;51.412;5.432;2023-11-22T12:57:03;37.72;;;13.68;;
74074;SDS011;62428;51.412;5.432;2023-11-22T12:59:35;34.63;;;12.47;;
74074;SDS011;62428;51.412;5.432;2023-11-22T13:02:00;35.38;;;12.93;;
74074;SDS011;62428;51.412;5.432;2023-11-22T13:04:25;33.20;;;11.93;;
74074;SDS011;62428;51.412;5.432;2023-11-22T13:06:51;31.90;;;11.43;;
74074;SDS011;62428;51.412;5.432;2023-11-22T13:09:17;33.83;;;12.33;;
74074;SDS011;62428;51.412;5.432;2023-11-22T13:11:43;37.30;;;11.98;;
74074;SDS011;62428;51.412;5.432;2023-11-22T13:14:09;37.42;;;12.93;;
74074;SDS011;62428;51.412;5.432;2023-11-22T13:16:34;36.83;;;12.90;;
74074;SDS011;62428;51.412;5.432;2023-11-22T13:19:02;29.65;;;11.90;;
74074;SDS011;62428;51.412;5.432;2023-11-22T13:21:27;32.20;;;13.23;;
74074;SDS011;62428;51.412;5.432;2023-11-22T13:23:52;37.97;;;14.10;;
74074;SDS011;62428;51.412;5.432;2023-11-22T13:26:18;33.97;;;14.23;;
74074;SDS011;62428;51.412;5.432;2023-11-22T13:28:43;40.43;;;15.47;;
74074;SDS011;62428;51.412;5.432;2023-11-22T13:31:09;45.60;;;17.42;;
74074;SDS011;62428;51.412;5.432;2023-11-22T13:33:35;41.40;;;16.17;;
74074;SDS011;62428;51.412;5.432;2023-11-22T13:36:00;40.50;;;15.77;;
74074;SDS011;62428;51.412;5.432;2023-11-22T13:38:25;46.70;;;17.67;;
74074;SDS011;62428;51.412;5.432;2023-11-22T13:40:51;52.23;;;17.27;;
74074;SDS011;62428;51.412;5.432;2023-11-22T13:43:17;50.08;;;16.83;;
74074;SDS011;62428;51.412;5.432;2023-11-22T13:45:43;43.38;;;15.50;;
74074;SDS011;62428;51.412;5.432;2023-11-22T13:48:10;47.00;;;15.98;;
74074;SDS011;62428;51.412;5.432;2023-11-22T13:50:36;46.03;;;15.02;;
74074;SDS011;62428;51.412;5.432;2023-11-22T13:53:02;46.55;;;14.70;;
74074;SDS011;62428;51.412;5.432;2023-11-22T13:55:29;49.33;;;14.77;;
74074;SDS011;62428;51.412;5.432;2023-11-22T13:57:58;42.17;;;14.48;;
74074;SDS011;62428;51.412;5.432;2023-11-22T14:00:26;45.30;;;14.68;;
74074;SDS011;62428;51.412;5.432;2023-11-22T14:02:57;44.40;;;14.40;;
74074;SDS011;62428;51.412;5.432;2023-11-22T14:05:29;45.63;;;14.30;;
74074;SDS011;62428;51.412;5.432;2023-11-22T14:07:54;41.95;;;14.25;;
74074;SDS011;62428;51.412;5.432;2023-11-22T14:10:20;45.60;;;14.63;;
74074;SDS011;62428;51.412;5.432;2023-11-22T14:12:47;46.40;;;15.43;;
74074;SDS011;62428;51.412;5.432;2023-11-22T14:15:16;42.05;;;14.90;;
74074;SDS011;62428;51.412;5.432;2023-11-22T14:17:42;46.15;;;15.25;;
74074;SDS011;62428;51.412;5.432;2023-11-22T14:20:08;47.07;;;15.70;;
74074;SDS011;62428;51.412;5.432;2023-11-22T14:22:36;47.97;;;17.58;;
74074;SDS011;62428;51.412;5.432;2023-11-22T14:25:01;43.57;;;15.13;;
74074;SDS011;62428;51.412;5.432;2023-11-22T14:27:27;51.15;;;16.45;;